Time;durP1;ratioP1;P1;durP2;ratioP2;P2;SDS_P1;SDS_P2;PMS_P1;PMS_P2;Temp;Humidity;BMP_temperature;BMP_pressure;BME280_temperature;BME280_humidity;BME280_pressure;Samples;Min_cycle;Max_cycle;Signal;HPM_P1;HPM_P2
2021/05/30 00:00:13;;;;;;;5.65;4.82;;;16.70;96.90;;;;;;5071968;28;20466;-74
2021/05/30 00:02:43;;;;;;;5.45;4.93;;;16.70;97.00;;;;;;5073197;28;20052;-74
2021/05/30 00:05:15;;;;;;;5.65;5.10;;;16.70;97.10;;;;;;5073717;28;20077;-74
2021/05/30 00:07:41;;;;;;;6.53;5.00;;;16.70;97.20;;;;;;5073223;28;20074;-74
2021/05/30 00:10:10;;;;;;;6.50;5.38;;;16.60;97.20;;;;;;5073123;28;20033;-74
2021/05/30 00:12:36;;;;;;;5.72;5.22;;;16.60;97.30;;;;;;5073613;28;20037;-73
2021/05/30 00:15:04;;;;;;;8.30;5.07;;;16.60;97.40;;;;;;5073805;28;20021;-74
2021/05/30 00:17:32;;;;;;;5.85;5.30;;;16.60;97.50;;;;;;5073009;28;20480;-74
2021/05/30 00:20:18;;;;;;;6.60;5.60;;;16.50;97.60;;;;;;5073260;28;20354;-74
2021/05/30 00:22:56;;;;;;;6.95;6.13;;;16.50;97.50;;;;;;5074899;28;20078;-74
2021/05/30 00:25:37;;;;;;;;;;;;;;;;;;;;;
2021/05/30 00:28:12;;;;;;;10.68;9.68;;;16.50;97.50;;;;;;5074399;28;20088;-74
2021/05/30 00:30:50;;;;;;;10.65;9.65;;;16.50;97.50;;;;;;5018781;28;20044;-74
2021/05/30 00:33:20;;;;;;;10.63;9.63;;;16.50;97.50;;;;;;5035266;28;20105;-73
2021/05/30 00:36:10;;;;;;;;;;;;;;;;;;;;;
2021/05/30 00:38:39;;;;;;;8.70;7.90;;;16.40;97.40;;;;;;5016281;28;20049;-73
2021/05/30 00:41:12;;;;;;;8.63;7.82;;;16.40;97.50;;;;;;5035123;28;20487;-74
2021/05/30 00:43:46;;;;;;;6.95;6.35;;;16.30;97.50;;;;;;5018416;28;20076;-74
2021/05/30 00:46:20;;;;;;;5.70;5.20;;;16.30;97.60;;;;;;5035140;28;20445;-74
2021/05/30 00:48:47;;;;;;;5.20;4.80;;;16.30;97.70;;;;;;5035240;28;20100;-74
2021/05/30 00:51:13;;;;;;;4.90;4.50;;;16.30;97.80;;;;;;5035093;28;20025;-74
2021/05/30 00:53:46;;;;;;;5.43;4.93;;;16.40;97.80;;;;;;5035070;28;20116;-74
2021/05/30 00:56:13;;;;;;;5.25;4.72;;;16.30;97.80;;;;;;5035111;28;20030;-74
2021/05/30 00:58:39;;;;;;;5.53;5.03;;;16.30;97.80;;;;;;5047146;28;20474;-74
2021/05/30 01:01:06;;;;;;;5.97;5.22;;;16.30;97.80;;;;;;5074833;28;20028;-74
2021/05/30 01:03:42;;;;;;;6.68;5.32;;;16.30;97.80;;;;;;5057141;28;20082;-74
2021/05/30 01:06:10;;;;;;;6.10;5.25;;;16.30;97.80;;;;;;5057691;28;20547;-75
2021/05/30 01:08:41;;;;;;;5.78;5.28;;;16.20;97.80;;;;;;5074887;28;20104;-74
2021/05/30 01:11:14;;;;;;;5.50;5.00;;;16.20;97.80;;;;;;5056715;28;20032;-74
2021/05/30 01:13:40;;;;;;;5.50;5.00;;;16.20;97.80;;;;;;5056919;28;20371;-74
2021/05/30 01:16:07;;;;;;;5.82;5.22;;;16.10;97.80;;;;;;5074963;28;20028;-74
2021/05/30 01:18:36;;;;;;;5.68;5.15;;;16.10;97.90;;;;;;5074602;28;20032;-74
2021/05/30 01:21:04;;;;;;;6.78;5.68;;;16.10;97.90;;;;;;5057229;28;20377;-74
2021/05/30 01:23:34;;;;;;;7.53;5.55;;;16.10;97.80;;;;;;5057278;28;20033;-75
2021/05/30 01:26:01;;;;;;;6.07;5.22;;;16.10;97.90;;;;;;5074556;28;20390;-75
2021/05/30 01:28:33;;;;;;;5.93;5.40;;;16.00;97.80;;;;;;5072585;28;20102;-74
2021/05/30 01:30:58;;;;;;;6.38;5.78;;;16.00;97.80;;;;;;5057500;28;20085;-74
2021/05/30 01:33:32;;;;;;;6.35;5.70;;;16.00;97.80;;;;;;5074578;28;20032;-75
2021/05/30 01:35:58;;;;;;;6.00;5.50;;;15.90;97.80;;;;;;5074593;28;20033;-74
2021/05/30 01:38:27;;;;;;;6.35;5.70;;;15.90;97.90;;;;;;5056728;28;20044;-75
2021/05/30 01:40:55;;;;;;;6.37;5.77;;;15.90;97.90;;;;;;5040309;28;20028;-75
2021/05/30 01:43:21;;;;;;;7.78;5.55;;;15.80;97.90;;;;;;5074651;28;20091;-75
2021/05/30 01:45:47;;;;;;;7.65;5.65;;;15.80;98.00;;;;;;5074571;28;20104;-75
2021/05/30 01:48:14;;;;;;;5.85;5.25;;;15.70;98.00;;;;;;5074429;28;20028;-75
2021/05/30 01:50:58;;;;;;;;;;;;;;;;;;;;;
2021/05/30 01:53:41;;;;;;;7.70;5.93;;;15.70;98.10;;;;;;5074376;28;20027;-75
2021/05/30 01:58:33;;;;;;;6.30;5.70;;;15.60;98.20;;;;;;5046935;28;20463;-75
2021/05/30 02:01:01;;;;;;;6.88;6.07;;;15.60;98.40;;;;;;5036108;28;20037;-74
2021/05/30 02:03:28;;;;;;;6.78;6.18;;;15.60;98.50;;;;;;5054064;28;20092;-74
2021/05/30 02:05:58;;;;;;;6.50;5.90;;;15.70;98.50;;;;;;5054092;28;20032;-75
2021/05/30 02:08:25;;;;;;;6.60;6.00;;;15.60;98.50;;;;;;5054038;28;20103;-74
2021/05/30 02:10:51;;;;;;;6.10;5.60;;;15.60;98.50;;;;;;5053457;28;20455;-73
2021/05/30 02:13:18;;;;;;;5.75;5.25;;;15.70;98.50;;;;;;5053560;28;20108;-75
2021/05/30 02:15:45;;;;;;;8.25;6.32;;;15.60;98.50;;;;;;5054073;28;20021;-75
2021/05/30 02:18:11;;;;;;;6.18;5.57;;;15.60;98.50;;;;;;5036570;28;20029;-76
2021/05/30 02:20:39;;;;;;;5.95;5.35;;;15.60;98.60;;;;;;5054145;28;20094;-75
2021/05/30 02:23:14;;;;;;;7.80;5.30;;;15.60;98.60;;;;;;5003432;28;20029;-75
2021/05/30 02:25:43;;;;;;;5.70;5.20;;;15.60;98.70;;;;;;5053724;28;20494;-76
2021/05/30 02:28:27;;;;;;;5.72;5.22;;;15.60;98.70;;;;;;5017135;28;20033;-75
2021/05/30 02:31:03;;;;;;;5.68;5.18;;;15.60;98.70;;;;;;5034576;28;20036;-76
2021/05/30 02:33:35;;;;;;;5.30;4.85;;;15.60;99.00;;;;;;5034409;28;20017;-75
2021/05/30 02:36:01;;;;;;;5.80;5.30;;;15.60;98.80;;;;;;5034684;28;20026;-76
2021/05/30 02:38:29;;;;;;;5.50;5.10;;;15.60;98.70;;;;;;5017038;28;20037;-74
2021/05/30 02:40:58;;;;;;;5.32;4.82;;;15.60;98.70;;;;;;5001271;28;20032;-76
2021/05/30 02:43:28;;;;;;;5.22;4.72;;;15.60;98.90;;;;;;5016551;28;20021;-75
2021/05/30 02:45:57;;;;;;;5.63;5.13;;;15.70;98.90;;;;;;5015710;28;20533;-75
2021/05/30 02:48:27;;;;;;;6.10;4.50;;;15.70;98.80;;;;;;5016857;28;20427;-74
2021/05/30 02:50:59;;;;;;;5.30;4.80;;;15.70;98.80;;;;;;5017185;28;20037;-74
2021/05/30 02:53:35;;;;;;;4.47;4.07;;;15.70;98.70;;;;;;5017941;28;20095;-74
2021/05/30 02:56:01;;;;;;;6.93;3.88;;;15.70;98.70;;;;;;5034094;28;20425;-75
2021/05/30 02:58:32;;;;;;;4.13;3.83;;;15.80;98.70;;;;;;5033673;28;20028;-76
2021/05/30 03:01:00;;;;;;;4.53;4.13;;;15.80;98.70;;;;;;5034406;28;20048;-75
2021/05/30 03:03:33;;;;;;;8.15;4.00;;;15.80;98.50;;;;;;5033189;28;20040;-73
2021/05/30 03:06:05;;;;;;;3.70;3.40;;;15.90;98.30;;;;;;5032840;28;20423;-76
2021/05/30 03:08:39;;;;;;;3.80;3.50;;;15.90;98.10;;;;;;5033969;28;20021;-75
2021/05/30 03:11:04;;;;;;;3.28;3.03;;;15.80;98.00;;;;;;5034207;28;20458;-77
2021/05/30 03:13:30;;;;;;;4.18;3.65;;;15.80;97.90;;;;;;5034484;28;20040;-72
2021/05/30 03:16:02;;;;;;;5.55;3.40;;;15.90;97.90;;;;;;5034358;28;20033;-75
2021/05/30 03:18:28;;;;;;;3.65;3.10;;;15.80;97.80;;;;;;5034110;28;20104;-74
2021/05/30 03:20:54;;;;;;;4.22;3.00;;;15.90;97.90;;;;;;5033809;28;20348;-76
2021/05/30 03:23:20;;;;;;;3.40;3.20;;;15.80;98.00;;;;;;5032315;28;20457;-77
2021/05/30 03:25:45;;;;;;;4.20;3.40;;;15.90;98.00;;;;;;5035887;28;20475;-78
2021/05/30 03:28:11;;;;;;;4.90;3.95;;;15.90;97.90;;;;;;5054130;28;20032;-78
2021/05/30 03:30:37;;;;;;;5.28;3.80;;;15.90;97.80;;;;;;5073572;28;20044;-77
2021/05/30 03:33:03;;;;;;;4.10;3.70;;;15.90;97.90;;;;;;5055697;28;20083;-77
2021/05/30 03:35:29;;;;;;;4.30;3.45;;;16.00;98.00;;;;;;5072945;28;20029;-75
2021/05/30 03:37:57;;;;;;;4.10;3.80;;;16.00;98.00;;;;;;5038800;28;20060;-77
2021/05/30 03:42:53;;;;;;;6.28;3.83;;;16.00;97.90;;;;;;5073514;28;20033;-76
2021/05/30 03:45:20;;;;;;;4.10;3.80;;;16.00;97.80;;;;;;5073322;28;20031;-77
2021/05/30 03:47:46;;;;;;;4.82;3.95;;;16.10;97.90;;;;;;5055390;28;20036;-74
2021/05/30 03:50:13;;;;;;;5.47;4.20;;;16.10;98.00;;;;;;5038809;28;20025;-77
2021/05/30 03:52:46;;;;;;;4.70;4.30;;;16.10;97.90;;;;;;5072896;28;20066;-77
2021/05/30 03:55:17;;;;;;;5.93;4.20;;;16.10;97.80;;;;;;5055359;28;20028;-74
2021/05/30 03:58:01;;;;;;;9.30;8.30;;;16.10;97.80;;;;;;5050804;28;20037;-78
2021/05/30 04:00:37;;;;;;;6.53;5.88;;;16.10;97.80;;;;;;5057459;28;20115;-76
2021/05/30 04:03:04;;;;;;;11.73;10.52;;;16.10;97.80;;;;;;5039171;28;20387;-76
2021/05/30 04:05:35;;;;;;;13.15;10.82;;;16.10;97.70;;;;;;5039225;28;20036;-77
2021/05/30 04:08:03;;;;;;;11.95;9.70;;;16.00;97.70;;;;;;5023223;28;20025;-77
2021/05/30 04:10:29;;;;;;;9.57;7.05;;;16.00;97.80;;;;;;5056911;28;20063;-76
2021/05/30 04:12:54;;;;;;;7.57;4.95;;;16.10;97.90;;;;;;5056849;28;20036;-77
2021/05/30 04:15:24;;;;;;;5.05;4.55;;;16.10;97.90;;;;;;5039029;28;20119;-76
2021/05/30 04:17:52;;;;;;;5.28;4.22;;;16.10;97.80;;;;;;5039916;28;20033;-77
2021/05/30 04:20:23;;;;;;;5.03;4.53;;;16.20;97.80;;;;;;5056914;28;20044;-77
2021/05/30 04:22:49;;;;;;;5.15;4.28;;;16.20;97.90;;;;;;5056763;28;20021;-76
2021/05/30 04:25:19;;;;;;;8.77;5.63;;;16.20;97.70;;;;;;5022321;28;20032;-77
2021/05/30 04:27:57;;;;;;;6.07;5.50;;;16.30;97.60;;;;;;5052557;28;20052;-76
2021/05/30 04:30:23;;;;;;;5.63;4.30;;;16.40;97.60;;;;;;5056804;28;20036;-77
2021/05/30 04:32:49;;;;;;;4.47;4.07;;;16.40;97.50;;;;;;5056579;28;20028;-76
2021/05/30 04:35:16;;;;;;;4.40;4.00;;;16.50;97.20;;;;;;5056847;28;20036;-77
2021/05/30 04:37:42;;;;;;;4.07;3.67;;;16.50;97.20;;;;;;5056205;28;20116;-76
2021/05/30 04:40:11;;;;;;;11.35;10.20;;;16.60;97.30;;;;;;5055208;28;20143;-75
2021/05/30 04:42:44;;;;;;;7.35;6.10;;;16.80;97.40;;;;;;5055195;28;20017;-77
2021/05/30 04:45:13;;;;;;;7.97;7.13;;;16.90;97.10;;;;;;5054906;28;20116;-76
2021/05/30 04:47:48;;;;;;;5.00;4.60;;;17.00;96.80;;;;;;5055389;28;20056;-76
2021/05/30 04:50:14;;;;;;;6.30;3.85;;;17.10;96.70;;;;;;5056636;28;20037;-72
2021/05/30 04:52:42;;;;;;;3.78;3.35;;;17.20;96.60;;;;;;5055966;28;20124;-76
2021/05/30 04:55:11;;;;;;;3.13;2.92;;;17.40;96.20;;;;;;5038270;28;20029;-76
2021/05/30 04:57:38;;;;;;;3.08;2.88;;;17.40;96.10;;;;;;5053564;28;20024;-73
2021/05/30 05:00:06;;;;;;;2.90;2.30;;;17.60;95.10;;;;;;5054402;28;20029;-76
2021/05/30 05:02:34;;;;;;;3.17;2.63;;;17.70;94.60;;;;;;5055546;28;20021;-77
2021/05/30 05:05:24;;;;;;;2.10;2.00;;;17.60;94.20;;;;;;5053691;28;20025;-76
2021/05/30 05:07:52;;;;;;;3.00;2.20;;;17.60;94.30;;;;;;5053265;28;20040;-75
2021/05/30 05:10:20;;;;;;;3.25;2.90;;;17.60;94.00;;;;;;5054109;28;20466;-75
2021/05/30 05:12:46;;;;;;;3.20;2.85;;;17.60;93.80;;;;;;5053938;28;20390;-76
2021/05/30 05:15:12;;;;;;;2.70;2.50;;;17.60;93.80;;;;;;5053400;28;20032;-74
2021/05/30 05:17:40;;;;;;;2.72;2.53;;;17.50;93.50;;;;;;5055069;28;20057;-78
2021/05/30 05:20:07;;;;;;;3.85;3.45;;;17.50;93.50;;;;;;5055651;28;20154;-74
2021/05/30 05:22:32;;;;;;;6.88;5.80;;;17.50;93.70;;;;;;5055313;28;20032;-72
2021/05/30 05:25:05;;;;;;;20.23;12.65;;;17.50;93.30;;;;;;5054010;28;20029;-73
2021/05/30 05:27:36;;;;;;;13.65;9.20;;;17.50;93.30;;;;;;5053333;28;20526;-74
2021/05/30 05:30:09;;;;;;;5.90;4.75;;;17.40;93.50;;;;;;5054892;28;20033;-76
2021/05/30 05:32:35;;;;;;;4.35;3.92;;;17.40;93.50;;;;;;5055799;28;20104;-71
2021/05/30 05:35:07;;;;;;;4.20;3.28;;;17.40;93.70;;;;;;5055750;28;20108;-75
2021/05/30 05:37:38;;;;;;;3.55;3.25;;;17.40;93.60;;;;;;5056014;28;20036;-76
2021/05/30 05:40:04;;;;;;;8.93;4.82;;;17.50;93.40;;;;;;5054785;28;20109;-75
2021/05/30 05:42:29;;;;;;;6.15;3.63;;;17.40;93.60;;;;;;5055597;28;20021;-77
2021/05/30 05:44:55;;;;;;;4.00;3.17;;;17.40;93.50;;;;;;5055513;28;20028;-75
2021/05/30 05:47:26;;;;;;;5.75;3.70;;;17.40;93.30;;;;;;5055620;28;20028;-75
2021/05/30 05:49:51;;;;;;;13.30;9.00;;;17.40;93.30;;;;;;5055487;28;20422;-78
2021/05/30 05:52:29;;;;;;;4.30;3.55;;;17.50;93.30;;;;;;5054595;28;20035;-76
2021/05/30 05:54:55;;;;;;;3.33;2.85;;;17.50;92.90;;;;;;5054133;28;20608;-80
2021/05/30 05:57:25;;;;;;;7.68;6.70;;;17.50;93.00;;;;;;5053330;28;20056;-76
2021/05/30 05:59:51;;;;;;;;;;;17.40;93.00;;;;;;5037872;28;20021;-76
2021/05/30 06:02:18;;;;;;;4.18;3.78;;;17.40;93.20;;;;;;5054215;28;20034;-79
2021/05/30 06:04:44;;;;;;;6.95;3.30;;;17.40;93.20;;;;;;5054308;28;20375;-77
2021/05/30 06:07:10;;;;;;;4.28;2.60;;;17.40;92.90;;;;;;5054813;28;20021;-75
2021/05/30 06:09:36;;;;;;;6.10;4.18;;;17.40;93.20;;;;;;5054967;28;20072;-76
2021/05/30 06:12:06;;;;;;;3.42;3.13;;;17.50;93.30;;;;;;5055286;28;20455;-76
2021/05/30 06:14:32;;;;;;;3.07;2.87;;;17.50;93.00;;;;;;5055009;28;20027;-75
2021/05/30 06:17:02;;;;;;;4.57;3.90;;;17.60;92.90;;;;;;5036947;28;20266;-75
2021/05/30 06:19:36;;;;;;;5.88;4.65;;;17.60;93.10;;;;;;5055244;28;20103;-84
2021/05/30 06:22:10;;;;;;;3.65;3.35;;;17.70;92.90;;;;;;5054062;28;20024;-73
2021/05/30 06:24:36;;;;;;;3.22;2.92;;;17.70;93.20;;;;;;5053418;28;20036;-74
2021/05/30 06:27:03;;;;;;;3.00;2.70;;;17.80;92.90;;;;;;5035310;28;20059;-78
2021/05/30 06:29:29;;;;;;;3.20;2.92;;;17.80;92.90;;;;;;5054080;28;20056;-74
2021/05/30 06:32:00;;;;;;;3.00;2.63;;;17.90;92.70;;;;;;5054651;28;20176;-84
2021/05/30 06:34:25;;;;;;;;;;;17.90;92.40;;;;;;5054718;28;20027;-74
2021/05/30 06:36:54;;;;;;;3.20;2.60;;;17.80;92.50;;;;;;5054478;28;19995;-86
2021/05/30 06:39:23;;;;;;;3.22;2.90;;;17.70;92.30;;;;;;5053426;28;20517;-76
2021/05/30 06:41:52;;;;;;;3.53;3.10;;;17.70;92.60;;;;;;5052529;28;20025;-78
2021/05/30 06:44:21;;;;;;;2.67;2.47;;;17.60;92.60;;;;;;5053882;28;20490;-79
2021/05/30 06:46:47;;;;;;;2.80;2.35;;;17.60;92.80;;;;;;5052856;28;20463;-78
2021/05/30 06:49:15;;;;;;;2.72;2.33;;;17.60;92.90;;;;;;5053741;28;20025;-78
2021/05/30 06:51:43;;;;;;;3.55;2.28;;;17.70;92.60;;;;;;5053565;28;20474;-77
2021/05/30 06:54:16;;;;;;;3.28;2.55;;;17.70;92.30;;;;;;5052806;28;20795;-76
2021/05/30 06:56:42;;;;;;;3.95;2.50;;;17.70;92.40;;;;;;5053982;28;20109;-79
2021/05/30 06:59:08;;;;;;;2.80;2.33;;;17.60;92.40;;;;;;5053892;28;20103;-85
2021/05/30 07:01:34;;;;;;;2.85;2.35;;;17.70;92.20;;;;;;5053689;28;20021;-79
2021/05/30 07:04:00;;;;;;;2.50;2.30;;;17.60;92.30;;;;;;5054007;28;20035;-83
2021/05/30 07:06:28;;;;;;;2.85;2.65;;;17.60;92.10;;;;;;5052952;28;20455;-77
2021/05/30 07:08:56;;;;;;;2.53;2.33;;;17.60;92.50;;;;;;5053779;28;20020;-79
2021/05/30 07:11:22;;;;;;;2.40;2.25;;;17.60;92.50;;;;;;5051928;28;20029;-77
2021/05/30 07:13:48;;;;;;;2.67;2.40;;;17.70;92.50;;;;;;5053624;28;20031;-74
2021/05/30 07:16:13;;;;;;;3.58;2.20;;;17.80;92.00;;;;;;5053375;28;20030;-75
2021/05/30 07:18:41;;;;;;;2.40;2.20;;;17.70;91.90;;;;;;5052873;28;20033;-75
2021/05/30 07:21:07;;;;;;;2.78;2.58;;;17.70;92.10;;;;;;5053479;28;20383;-75
2021/05/30 07:23:36;;;;;;;2.63;2.42;;;17.70;92.00;;;;;;5052946;28;20478;-75
2021/05/30 07:26:02;;;;;;;2.70;2.45;;;17.70;91.90;;;;;;5053724;28;20043;-75
2021/05/30 07:28:28;;;;;;;3.05;2.72;;;17.70;92.50;;;;;;5053861;28;20060;-74
2021/05/30 07:30:54;;;;;;;2.65;2.45;;;17.80;92.20;;;;;;5072713;28;20032;-75
2021/05/30 07:33:24;;;;;;;2.40;2.30;;;17.80;92.20;;;;;;5072770;28;20826;-76
2021/05/30 07:35:55;;;;;;;2.83;2.50;;;17.80;92.10;;;;;;5073481;28;20029;-78
2021/05/30 07:38:21;;;;;;;2.42;2.22;;;17.80;92.10;;;;;;5073520;28;20100;-80
2021/05/30 07:40:47;;;;;;;2.92;2.63;;;17.90;92.10;;;;;;5072751;28;20043;-77
2021/05/30 07:43:13;;;;;;;2.70;2.50;;;17.90;91.90;;;;;;5072938;28;20013;-73
2021/05/30 07:45:43;;;;;;;3.67;2.80;;;17.90;92.00;;;;;;5073016;28;20439;-76
2021/05/30 07:48:12;;;;;;;3.58;2.95;;;18.00;92.10;;;;;;5072418;28;20025;-84
2021/05/30 07:50:45;;;;;;;2.72;2.53;;;18.20;92.20;;;;;;5073256;28;20037;-84
2021/05/30 07:53:11;;;;;;;2.33;2.22;;;18.40;91.90;;;;;;5053707;28;20355;-78
2021/05/30 07:55:47;;;;;;;2.70;2.50;;;18.50;91.60;;;;;;5073421;28;20089;-79
2021/05/30 07:58:15;;;;;;;2.60;2.40;;;18.70;91.40;;;;;;5072972;28;20157;-74
2021/05/30 08:00:41;;;;;;;2.40;2.20;;;18.80;91.20;;;;;;5054384;28;20024;-73
2021/05/30 08:03:07;;;;;;;3.17;2.80;;;18.90;91.40;;;;;;5055536;28;20059;-87
2021/05/30 08:05:36;;;;;;;2.50;2.30;;;19.10;90.80;;;;;;5073117;28;20095;-74
2021/05/30 08:08:06;;;;;;;2.20;2.10;;;19.20;90.70;;;;;;5037956;28;20033;-74
2021/05/30 08:10:33;;;;;;;2.30;2.20;;;19.20;90.50;;;;;;5054196;28;20478;-76
2021/05/30 08:13:02;;;;;;;2.60;2.40;;;19.20;90.70;;;;;;5038894;28;20374;-77
2021/05/30 08:15:37;;;;;;;3.60;2.13;;;19.30;90.70;;;;;;5072517;28;20031;-75
2021/05/30 08:18:04;;;;;;;2.03;1.92;;;19.30;90.70;;;;;;5054328;28;20024;-75
2021/05/30 08:20:30;;;;;;;4.28;2.42;;;19.40;90.70;;;;;;5072646;28;20017;-85
2021/05/30 08:22:56;;;;;;;2.70;2.50;;;19.60;90.80;;;;;;5071099;28;20035;-74
2021/05/30 08:25:24;;;;;;;2.50;2.30;;;19.80;90.10;;;;;;5054835;28;20386;-78
2021/05/30 08:27:52;;;;;;;2.60;2.40;;;19.90;90.20;;;;;;5072945;28;20048;-77
2021/05/30 08:30:21;;;;;;;3.08;2.80;;;20.00;88.20;;;;;;5073503;28;20021;-75
2021/05/30 08:32:47;;;;;;;3.90;3.40;;;20.00;88.90;;;;;;5055229;28;20040;-75
2021/05/30 08:35:14;;;;;;;3.15;2.85;;;20.00;89.60;;;;;;5055041;28;20111;-75
2021/05/30 08:37:50;;;;;;;3.85;2.55;;;20.10;88.60;;;;;;5073132;28;20028;-77
2021/05/30 08:40:18;;;;;;;3.00;2.22;;;20.10;88.40;;;;;;5073316;28;20025;-79
2021/05/30 08:42:46;;;;;;;2.15;2.00;;;20.20;88.00;;;;;;5072637;28;20032;-76
2021/05/30 08:45:14;;;;;;;2.00;1.80;;;20.20;87.40;;;;;;5058706;28;20077;-77
2021/05/30 08:47:44;;;;;;;2.53;2.33;;;20.20;87.80;;;;;;5040357;28;20045;-75
2021/05/30 08:50:10;;;;;;;3.88;2.90;;;20.20;87.10;;;;;;5076328;28;20024;-77
2021/05/30 08:52:42;;;;;;;2.38;2.05;;;20.10;86.90;;;;;;5059063;28;20029;-79
2021/05/30 08:55:09;;;;;;;2.92;2.15;;;20.10;87.80;;;;;;5076652;28;20052;-75
2021/05/30 08:57:38;;;;;;;3.50;2.25;;;20.20;88.60;;;;;;5058721;28;20032;-81
2021/05/30 09:00:13;;;;;;;4.25;2.08;;;20.20;88.00;;;;;;5076228;28;20488;-75
2021/05/30 09:02:41;;;;;;;2.40;2.03;;;20.40;87.40;;;;;;5076116;28;20074;-76
2021/05/30 09:05:08;;;;;;;2.30;2.10;;;20.50;86.70;;;;;;5058978;28;20024;-76
2021/05/30 09:07:52;;;;;;;2.13;1.90;;;20.60;86.60;;;;;;5058786;28;20416;-76
2021/05/30 09:10:27;;;;;;;1.80;1.70;;;20.70;86.30;;;;;;5058004;28;20029;-79
2021/05/30 09:13:16;;;;;;;3.15;1.80;;;20.70;86.20;;;;;;5076080;28;20416;-75
2021/05/30 09:16:05;;;;;;;;;;;;;;;;;;;;;
2021/05/30 09:18:34;;;;;;;2.53;2.10;;;20.90;84.90;;;;;;5055771;28;20040;-74
2021/05/30 09:21:12;;;;;;;2.47;2.20;;;20.90;84.40;;;;;;5038137;28;20459;-82
2021/05/30 09:23:46;;;;;;;2.10;2.00;;;20.90;84.90;;;;;;5038758;28;20029;-75
2021/05/30 09:26:19;;;;;;;2.40;2.30;;;20.90;85.90;;;;;;5053284;28;20061;-75
2021/05/30 09:29:05;;;;;;;2.60;2.40;;;21.10;85.90;;;;;;5034824;28;20546;-77
2021/05/30 09:31:33;;;;;;;3.83;2.70;;;21.20;85.20;;;;;;5035232;28;20037;-78
2021/05/30 09:33:59;;;;;;;2.85;2.10;;;21.20;82.90;;;;;;5034635;28;20040;-75
2021/05/30 09:36:25;;;;;;;2.92;2.08;;;21.10;82.90;;;;;;5035082;28;20029;-73
2021/05/30 09:39:04;;;;;;;2.30;2.10;;;21.10;83.40;;;;;;5035146;28;20033;-75
2021/05/30 09:41:30;;;;;;;3.22;2.92;;;21.10;83.50;;;;;;5035030;28;20024;-73
2021/05/30 09:43:56;;;;;;;2.75;2.50;;;21.20;84.20;;;;;;5034343;28;20096;-76
2021/05/30 09:46:30;;;;;;;1.92;1.80;;;21.30;83.80;;;;;;5033636;28;20034;-76
2021/05/30 09:49:02;;;;;;;3.25;2.95;;;21.40;82.60;;;;;;5016927;28;20754;-76
2021/05/30 09:51:39;;;;;;;3.70;3.03;;;21.40;83.00;;;;;;5034836;28;20091;-80
2021/05/30 09:54:06;;;;;;;2.78;2.53;;;21.40;82.70;;;;;;5034939;28;20104;-73
2021/05/30 09:56:39;;;;;;;2.40;2.15;;;21.40;81.10;;;;;;5016730;28;20021;-76
2021/05/30 09:59:26;;;;;;;;;;;;;;;;;;;;;
2021/05/30 10:02:02;;;;;;;3.70;3.30;;;21.30;81.20;;;;;;5034281;28;20023;-72
2021/05/30 10:04:32;;;;;;;3.40;3.00;;;21.30;81.40;;;;;;5034180;28;20031;-75
2021/05/30 10:06:59;;;;;;;2.83;2.55;;;21.30;82.00;;;;;;5034134;28;20117;-76
2021/05/30 10:09:33;;;;;;;4.03;2.90;;;21.40;81.40;;;;;;5034195;28;20034;-79
2021/05/30 10:11:59;;;;;;;2.15;1.88;;;21.40;80.50;;;;;;5016584;28;20472;-76
2021/05/30 10:14:31;;;;;;;2.60;2.25;;;21.40;80.60;;;;;;5034273;28;20084;-71
2021/05/30 10:17:02;;;;;;;2.97;2.45;;;21.30;81.30;;;;;;5016145;28;20830;-71
2021/05/30 10:19:36;;;;;;;2.92;2.60;;;21.20;80.80;;;;;;5033718;28;20057;-73
2021/05/30 10:22:05;;;;;;;2.28;2.08;;;21.10;81.70;;;;;;5033788;28;20029;-74
2021/05/30 10:24:41;;;;;;;4.57;2.20;;;21.00;82.20;;;;;;5016923;28;20028;-75
2021/05/30 10:27:31;;;;;;;2.05;1.95;;;20.90;82.70;;;;;;5033488;28;20083;-78
2021/05/30 10:30:06;;;;;;;;;;;20.90;82.90;;;;;;5055044;28;20028;-76
2021/05/30 10:32:34;;;;;;;2.28;2.10;;;20.80;83.30;;;;;;5054394;28;20365;-76
2021/05/30 10:35:08;;;;;;;2.53;2.33;;;20.80;83.00;;;;;;5054730;28;20029;-78
2021/05/30 10:37:47;;;;;;;3.20;2.70;;;20.80;82.70;;;;;;5053594;28;20029;-76
2021/05/30 10:40:43;;;;;;;2.97;2.67;;;20.80;83.20;;;;;;5055151;28;20048;-73
2021/05/30 10:43:19;;;;;;;2.92;2.60;;;20.80;83.50;;;;;;5036583;28;20029;-77
2021/05/30 10:45:50;;;;;;;5.63;3.53;;;20.90;81.70;;;;;;5052755;28;20025;-76
2021/05/30 10:48:22;;;;;;;3.83;2.90;;;20.70;82.60;;;;;;5054820;28;20079;-72
2021/05/30 10:51:11;;;;;;;2.30;2.10;;;20.70;82.50;;;;;;5052934;28;20082;-78
2021/05/30 10:53:44;;;;;;;2.33;2.13;;;20.70;82.90;;;;;;5053187;28;20028;-74
2021/05/30 10:56:24;;;;;;;2.30;2.10;;;20.80;83.20;;;;;;5052779;28;20470;-75
2021/05/30 10:59:10;;;;;;;3.65;3.25;;;20.90;82.50;;;;;;5053934;28;20032;-71
2021/05/30 11:01:42;;;;;;;3.35;2.35;;;21.00;82.90;;;;;;5054196;28;20517;-73
2021/05/30 11:04:29;;;;;;;4.20;3.80;;;21.00;82.20;;;;;;5054261;28;20021;-78
2021/05/30 11:06:59;;;;;;;4.18;3.85;;;21.10;82.10;;;;;;5053873;28;20099;-78
2021/05/30 11:09:44;;;;;;;;;;;21.20;82.20;;;;;;5054249;28;20053;-74
2021/05/30 11:12:46;;;;;;;2.70;2.50;;;21.30;80.60;;;;;;5053373;28;19947;-73
2021/05/30 11:15:14;;;;;;;3.20;2.90;;;21.40;81.00;;;;;;5053781;28;20501;-72
2021/05/30 11:17:52;;;;;;;2.30;2.20;;;21.50;79.50;;;;;;5053641;28;20024;-74
2021/05/30 11:20:20;;;;;;;2.15;2.05;;;21.60;78.60;;;;;;5053965;28;20028;-74
2021/05/30 11:23:02;;;;;;;2.60;2.40;;;21.60;78.80;;;;;;5053829;28;20054;-75
2021/05/30 11:25:50;;;;;;;2.28;2.08;;;21.70;78.80;;;;;;5054125;28;20086;-73
2021/05/30 11:28:24;;;;;;;1.90;1.80;;;21.60;77.70;;;;;;5070215;28;20067;-80
2021/05/30 11:31:18;;;;;;;3.05;2.75;;;21.50;78.20;;;;;;5054066;28;20481;-72
2021/05/30 11:34:02;;;;;;;4.70;3.25;;;21.50;78.80;;;;;;5056689;28;20075;-73
2021/05/30 11:36:43;;;;;;;2.85;2.30;;;21.70;80.10;;;;;;5054363;28;20099;-72
2021/05/30 11:39:17;;;;;;;3.97;2.55;;;21.80;79.30;;;;;;5072591;28;20062;-73
2021/05/30 11:41:52;;;;;;;2.78;2.50;;;21.80;78.60;;;;;;5068478;28;20031;-74
2021/05/30 11:44:31;;;;;;;8.82;5.15;;;21.90;78.30;;;;;;5052228;28;20171;-72
2021/05/30 11:47:05;;;;;;;7.28;5.35;;;22.10;78.20;;;;;;5034317;28;20477;-73
2021/05/30 11:49:42;;;;;;;7.80;5.07;;;22.20;77.10;;;;;;5034419;28;20033;-75
2021/05/30 11:52:13;;;;;;;4.30;3.22;;;22.40;76.30;;;;;;5034633;28;20036;-75
2021/05/30 11:54:44;;;;;;;2.33;2.15;;;22.50;75.20;;;;;;5052546;28;20036;-75
2021/05/30 11:57:16;;;;;;;2.22;2.03;;;22.60;73.80;;;;;;5052223;28;20072;-74
2021/05/30 12:00:07;;;;;;;2.20;2.00;;;22.80;75.00;;;;;;5052332;28;20355;-76
2021/05/30 12:02:46;;;;;;;2.33;2.05;;;23.20;74.10;;;;;;5052070;28;20024;-72
2021/05/30 12:05:27;;;;;;;2.17;1.98;;;23.50;72.80;;;;;;5052065;28;20096;-74
2021/05/30 12:07:55;;;;;;;3.38;2.78;;;23.80;72.50;;;;;;5033500;28;20033;-73
2021/05/30 12:10:21;;;;;;;2.10;2.00;;;24.10;71.90;;;;;;5052352;28;20021;-74
2021/05/30 12:12:51;;;;;;;4.13;2.30;;;24.30;69.20;;;;;;5052162;28;20065;-72
2021/05/30 12:15:17;;;;;;;;;;;24.40;68.90;;;;;;5035822;28;20029;-73
2021/05/30 12:17:58;;;;;;;3.83;3.42;;;24.30;68.90;;;;;;5035705;28;19909;-73
2021/05/30 12:20:30;;;;;;;3.97;3.35;;;24.30;69.40;;;;;;5055952;28;20079;-77
2021/05/30 12:23:15;;;;;;;3.53;3.20;;;24.20;69.80;;;;;;5056358;28;20025;-74
2021/05/30 12:26:12;;;;;;;2.30;2.10;;;24.20;69.40;;;;;;5038398;28;20028;-76
2021/05/30 12:28:39;;;;;;;2.28;2.08;;;24.10;69.30;;;;;;5011511;28;20033;-71
2021/05/30 12:31:28;;;;;;;2.30;2.10;;;24.10;72.50;;;;;;5017137;28;20040;-73
2021/05/30 12:34:01;;;;;;;3.58;2.35;;;24.40;68.90;;;;;;5017455;28;20097;-73
2021/05/30 12:36:36;;;;;;;2.55;2.35;;;24.60;69.20;;;;;;5017568;28;20026;-73
2021/05/30 12:39:09;;;;;;;1.90;1.80;;;24.60;67.70;;;;;;5016886;28;20036;-74
2021/05/30 12:41:39;;;;;;;2.25;2.05;;;24.50;67.80;;;;;;5017169;28;20034;-74
2021/05/30 12:44:14;;;;;;;;;;;24.30;68.10;;;;;;5016099;28;20034;-73
2021/05/30 12:46:53;;;;;;;2.80;2.20;;;24.00;68.70;;;;;;5017046;28;19912;-75
2021/05/30 12:49:21;;;;;;;4.15;2.38;;;23.80;69.20;;;;;;4999119;28;20029;-74
2021/05/30 12:52:08;;;;;;;2.70;2.50;;;23.60;71.10;;;;;;4998962;28;20044;-73
2021/05/30 12:54:36;;;;;;;3.60;3.30;;;23.60;72.80;;;;;;5016550;28;20026;-79
2021/05/30 12:57:03;;;;;;;6.78;4.30;;;23.80;71.20;;;;;;5017036;28;20018;-86
2021/05/30 12:59:34;;;;;;;4.05;3.70;;;24.10;70.00;;;;;;5016759;28;20491;-73
2021/05/30 13:02:09;;;;;;;5.00;4.45;;;24.30;69.70;;;;;;5017067;28;20050;-74
2021/05/30 13:04:47;;;;;;;7.63;5.57;;;24.40;69.30;;;;;;5030489;28;20021;-72
2021/05/30 13:07:28;;;;;;;6.35;4.13;;;24.20;70.50;;;;;;5035752;28;20079;-77
2021/05/30 13:10:02;;;;;;;4.25;3.10;;;24.30;70.30;;;;;;5019342;28;20104;-75
2021/05/30 13:13:23;;;;;;;3.58;3.05;;;24.30;70.40;;;;;;5018386;28;20072;-76
2021/05/30 13:15:51;;;;;;;3.40;2.80;;;24.20;69.90;;;;;;4956362;29;20058;-77
2021/05/30 13:18:19;;;;;;;5.07;2.45;;;24.10;67.60;;;;;;5015079;28;20040;-72